createdAt,value
2022-09-03T00:00:32.481Z,78.90
2022-09-03T00:03:05.832Z,79.70
2022-09-03T00:05:42.095Z,79.70
2022-09-03T00:08:20.925Z,79.90
2022-09-03T00:10:57.705Z,80.00
2022-09-03T00:13:34.868Z,80.20
2022-09-03T00:16:10.178Z,80.40
2022-09-03T00:18:46.375Z,80.80
2022-09-03T00:21:20.334Z,81.00
2022-09-03T00:23:50.129Z,81.40
2022-09-03T00:26:27.122Z,81.50
2022-09-03T00:29:00.965Z,81.50
2022-09-03T00:31:35.359Z,82.10
2022-09-03T00:34:09.191Z,82.30
2022-09-03T00:36:43.165Z,82.70
2022-09-03T00:39:13.674Z,81.50
2022-09-03T00:41:59.572Z,82.50
2022-09-03T00:45:19.718Z,81.70
2022-09-03T00:48:04.453Z,82.30
2022-09-03T00:50:47.554Z,81.50
2022-09-03T00:53:28.531Z,81.40
2022-09-03T00:56:02.153Z,81.50
2022-09-03T00:58:51.800Z,81.70
2022-09-03T01:01:27.801Z,81.90
2022-09-03T01:04:09.555Z,81.20
2022-09-03T01:06:50.243Z,80.60
2022-09-03T01:09:44.115Z,80.40
2022-09-03T01:12:23.375Z,80.00
2022-09-03T01:15:05.329Z,79.90
2022-09-03T01:17:52.948Z,80.80
2022-09-03T01:20:50.363Z,79.90
2022-09-03T01:23:59.616Z,79.30
2022-09-03T01:26:46.611Z,79.30
2022-09-03T01:29:26.635Z,79.30
2022-09-03T01:32:07.570Z,79.30
2022-09-03T01:34:50.314Z,79.10
2022-09-03T01:37:35.622Z,78.60
2022-09-03T01:40:16.594Z,78.40
2022-09-03T01:43:05.443Z,78.00
2022-09-03T01:45:51.704Z,79.50
2022-09-03T01:48:44.096Z,78.90
2022-09-03T01:51:22.652Z,79.70
2022-09-03T01:54:32.938Z,79.70
2022-09-03T01:57:35.240Z,79.70
2022-09-03T02:00:10.366Z,79.70
2022-09-03T02:02:47.822Z,79.30
2022-09-03T02:05:20.626Z,79.30
2022-09-03T02:07:53.011Z,79.70
2022-09-03T02:10:27.873Z,81.20
2022-09-03T02:13:01.797Z,79.50
2022-09-03T02:15:32.649Z,79.50
2022-09-03T02:18:06.976Z,79.30
2022-09-03T02:20:35.668Z,79.50
2022-09-03T02:23:04.488Z,80.20
2022-09-03T02:25:39.284Z,82.50
2022-09-03T02:28:16.984Z,82.70
2022-09-03T02:30:52.158Z,82.50
2022-09-03T02:33:21.999Z,84.10
2022-09-03T02:35:50.483Z,85.10
2022-09-03T02:38:21.597Z,84.90
2022-09-03T02:40:50.041Z,84.00
2022-09-03T02:43:32.025Z,84.30
2022-09-03T02:46:06.299Z,84.30
2022-09-03T02:48:35.946Z,85.10
2022-09-03T02:51:13.868Z,85.80
2022-09-03T02:53:43.291Z,86.40
2022-09-03T02:56:11.974Z,87.50
2022-09-03T02:58:40.866Z,87.30
2022-09-03T03:01:09.385Z,86.40
2022-09-03T03:03:39.030Z,86.00
2022-09-03T03:06:08.077Z,86.90
2022-09-03T03:08:36.294Z,87.10
2022-09-03T03:11:04.493Z,86.90
2022-09-03T03:13:33.443Z,87.50
2022-09-03T03:16:06.211Z,86.60
2022-09-03T03:18:35.013Z,87.10
2022-09-03T03:21:08.742Z,87.10
2022-09-03T03:23:38.839Z,86.60
2022-09-03T03:26:09.690Z,86.40
2022-09-03T03:28:38.415Z,87.90
2022-09-03T03:31:08.308Z,89.20
2022-09-03T03:33:37.007Z,89.20
2022-09-03T03:36:08.859Z,88.40
2022-09-03T03:38:37.551Z,89.60
2022-09-03T03:41:10.194Z,89.40
2022-09-03T03:43:38.553Z,89.60
2022-09-03T03:46:06.899Z,89.20
2022-09-03T03:48:35.593Z,89.00
2022-09-03T03:51:07.493Z,90.10
2022-09-03T03:53:38.707Z,89.40
2022-09-03T03:56:09.755Z,89.70
2022-09-03T03:58:42.956Z,90.20
2022-09-03T04:01:14.065Z,89.90
2022-09-03T04:03:43.134Z,90.10
2022-09-03T04:06:16.373Z,90.60
2022-09-03T04:08:46.799Z,90.10
2022-09-03T04:11:17.607Z,90.50
2022-09-03T04:13:47.644Z,90.50
2022-09-03T04:16:18.443Z,90.30
2022-09-03T04:18:49.161Z,90.80
2022-09-03T04:21:22.428Z,90.60
2022-09-03T04:23:52.212Z,90.50
2022-09-03T04:26:22.798Z,90.60
2022-09-03T04:28:51.167Z,90.90
2022-09-03T04:31:21.763Z,90.50
2022-09-03T04:33:51.168Z,90.80
2022-09-03T04:36:23.503Z,90.70
2022-09-03T04:38:54.092Z,90.80
2022-09-03T04:41:25.753Z,90.80
2022-09-03T04:43:55.050Z,90.80
2022-09-03T04:46:26.105Z,90.70
2022-09-03T04:48:57.935Z,90.40
2022-09-03T04:51:29.978Z,90.40
2022-09-03T04:54:01.160Z,90.30
2022-09-03T04:56:32.189Z,90.30
2022-09-03T04:59:03.577Z,89.90
2022-09-03T05:01:34.600Z,90.10
2022-09-03T05:04:03.824Z,90.20
2022-09-03T05:06:34.396Z,90.10
2022-09-03T05:09:03.104Z,89.90
2022-09-03T05:11:31.836Z,89.60
2022-09-03T05:14:01.387Z,89.60
2022-09-03T05:16:31.226Z,90.10
2022-09-03T05:19:01.599Z,90.10
2022-09-03T05:21:30.855Z,89.90
2022-09-03T05:24:02.108Z,90.10
2022-09-03T05:26:34.057Z,90.20
2022-09-03T05:29:07.581Z,90.20
2022-09-03T05:31:38.984Z,89.90
2022-09-03T05:34:10.375Z,90.10
2022-09-03T05:36:49.117Z,90.20
2022-09-03T05:39:20.399Z,89.70
2022-09-03T05:41:53.120Z,89.20
2022-09-03T05:44:23.941Z,89.90
2022-09-03T05:46:53.489Z,90.10
2022-09-03T05:49:21.770Z,89.90
2022-09-03T05:51:50.053Z,90.60
2022-09-03T05:54:19.699Z,90.70
2022-09-03T05:56:47.975Z,91.30
2022-09-03T05:59:16.381Z,90.90
2022-09-03T06:01:51.106Z,90.90
2022-09-03T06:04:21.621Z,90.10
2022-09-03T06:06:50.162Z,90.10
2022-09-03T06:09:23.365Z,88.60
2022-09-03T06:11:53.837Z,88.20
2022-09-03T06:14:23.711Z,88.10
2022-09-03T06:16:52.941Z,88.10
2022-09-03T06:19:21.921Z,87.90
2022-09-03T06:21:50.226Z,87.70
2022-09-03T06:24:23.299Z,88.20
2022-09-03T06:26:56.441Z,87.90
2022-09-03T06:29:24.712Z,88.10
2022-09-03T06:31:53.192Z,87.50
2022-09-03T06:34:22.674Z,87.90
2022-09-03T06:36:52.810Z,87.70
2022-09-03T06:39:25.507Z,87.90
2022-09-03T06:41:55.026Z,88.60
2022-09-03T06:44:30.359Z,88.40
2022-09-03T06:47:01.331Z,88.20
2022-09-03T06:49:31.856Z,88.80
2022-09-03T06:52:00.310Z,88.20
2022-09-03T06:54:30.086Z,88.10
2022-09-03T06:56:58.891Z,88.20
2022-09-03T06:59:28.343Z,88.60
2022-09-03T07:01:58.200Z,87.90
2022-09-03T07:04:27.527Z,87.70
2022-09-03T07:06:57.499Z,87.90
2022-09-03T07:09:26.185Z,86.90
2022-09-03T07:11:56.160Z,87.50
2022-09-03T07:14:24.851Z,88.40
2022-09-03T07:16:55.366Z,88.10
2022-09-03T07:19:23.774Z,88.10
2022-09-03T07:21:51.987Z,87.50
2022-09-03T07:24:22.528Z,90.50
2022-09-03T07:26:51.019Z,90.30
2022-09-03T07:29:21.581Z,89.00
2022-09-03T07:31:53.047Z,90.30
2022-09-03T07:34:26.446Z,88.40
2022-09-03T07:36:56.202Z,87.50
2022-09-03T07:39:24.590Z,86.60
2022-09-03T07:41:52.886Z,87.70
2022-09-03T07:44:22.786Z,86.20
2022-09-03T07:46:52.250Z,86.40
2022-09-03T07:49:21.603Z,86.60
2022-09-03T07:51:52.958Z,86.40
2022-09-03T07:54:21.874Z,84.70
2022-09-03T07:56:53.187Z,83.40
2022-09-03T07:59:23.844Z,81.90
2022-09-03T08:01:52.236Z,79.50
2022-09-03T08:04:23.468Z,77.60
2022-09-03T08:06:55.385Z,76.30
2022-09-03T08:09:23.786Z,76.50
2022-09-03T08:11:52.426Z,75.80
2022-09-03T08:14:22.186Z,75.20
2022-09-03T08:16:50.398Z,75.20
2022-09-03T08:19:19.791Z,75.00
2022-09-03T08:21:48.091Z,76.50
2022-09-03T08:24:21.260Z,75.00
2022-09-03T08:26:52.098Z,76.10
2022-09-03T08:29:22.897Z,75.80
2022-09-03T08:31:51.301Z,74.80
2022-09-03T08:34:20.086Z,73.90
2022-09-03T08:36:48.883Z,71.70
2022-09-03T08:39:17.405Z,70.90
2022-09-03T08:42:25.412Z,70.90
2022-09-03T08:44:58.531Z,69.80
2022-09-03T08:47:31.487Z,69.40
2022-09-03T08:50:06.298Z,67.40
2022-09-03T08:52:40.419Z,61.00
2022-09-03T08:55:27.577Z,59.80
2022-09-03T08:58:03.623Z,61.80
2022-09-03T09:00:46.611Z,64.00
2022-09-03T09:03:44.263Z,62.50
2022-09-03T09:06:25.238Z,57.40
2022-09-03T09:09:06.633Z,58.10
2022-09-03T09:11:49.759Z,58.60
2022-09-03T09:14:25.453Z,59.90
2022-09-03T09:17:09.000Z,62.30
2022-09-03T09:19:52.018Z,61.80
2022-09-03T09:22:26.653Z,62.50
2022-09-03T09:24:57.737Z,62.50
2022-09-03T09:27:26.372Z,62.50
2022-09-03T09:29:56.381Z,60.90
2022-09-03T09:32:25.949Z,61.40
2022-09-03T09:34:54.927Z,62.90
2022-09-03T09:37:23.439Z,62.00
2022-09-03T09:40:00.347Z,61.60
2022-09-03T09:42:30.952Z,60.90
2022-09-03T09:45:10.609Z,60.70
2022-09-03T09:47:41.575Z,59.80
2022-09-03T09:50:26.271Z,59.00
2022-09-03T09:53:05.315Z,56.00
2022-09-03T09:55:33.827Z,52.50
2022-09-03T09:58:14.339Z,47.90
2022-09-03T10:00:43.125Z,49.10
2022-09-03T10:03:13.846Z,50.20
2022-09-03T10:05:44.177Z,51.30
2022-09-03T10:08:22.685Z,52.00
2022-09-03T10:10:52.992Z,52.30
2022-09-03T10:13:25.897Z,51.10
2022-09-03T10:16:01.867Z,48.50
2022-09-03T10:18:40.486Z,46.20
2022-09-03T10:21:15.614Z,45.00
2022-09-03T10:23:57.506Z,46.20
2022-09-03T10:26:29.248Z,46.50
2022-09-03T10:29:02.861Z,47.60
2022-09-03T10:32:03.947Z,47.20
2022-09-03T10:34:45.264Z,44.60
2022-09-03T10:37:24.233Z,42.90
2022-09-03T10:40:08.785Z,42.70
2022-09-03T10:42:47.846Z,43.00
2022-09-03T10:45:22.448Z,44.00
2022-09-03T10:48:24.154Z,44.70
2022-09-03T10:50:58.384Z,46.20
2022-09-03T10:53:44.378Z,46.40
2022-09-03T10:56:17.631Z,47.30
2022-09-03T10:58:59.405Z,46.70
2022-09-03T11:01:42.890Z,44.10
2022-09-03T11:04:29.027Z,45.50
2022-09-03T11:07:05.121Z,46.40
2022-09-03T11:09:39.883Z,42.70
2022-09-03T11:12:13.511Z,42.60
2022-09-03T11:14:46.716Z,41.70
2022-09-03T11:17:23.309Z,40.50
2022-09-03T11:19:56.999Z,42.30
2022-09-03T11:22:29.720Z,43.00
2022-09-03T11:25:01.177Z,44.40
2022-09-03T11:27:55.871Z,42.40
2022-09-03T11:30:28.187Z,44.90
2022-09-03T11:33:01.308Z,46.20
2022-09-03T11:35:41.687Z,47.20
2022-09-03T11:38:27.225Z,48.50
2022-09-03T11:41:11.965Z,48.70
2022-09-03T11:43:40.920Z,49.40
2022-09-03T11:46:14.672Z,50.70
2022-09-03T11:48:46.124Z,51.00
2022-09-03T11:51:32.236Z,52.50
2022-09-03T11:54:04.776Z,52.60
2022-09-03T11:56:34.828Z,53.50
2022-09-03T11:59:19.453Z,53.50
2022-09-03T12:01:53.290Z,54.00
2022-09-03T12:04:28.266Z,54.90
2022-09-03T12:07:31.366Z,55.80
2022-09-03T12:10:24.732Z,56.30
2022-09-03T12:13:17.277Z,57.40
2022-09-03T12:16:31.100Z,58.00
2022-09-03T12:19:07.546Z,59.00
2022-09-03T12:21:41.924Z,61.00
2022-09-03T12:24:14.396Z,60.90
2022-09-03T12:26:44.690Z,61.80
2022-09-03T12:29:27.637Z,62.90
2022-09-03T12:31:57.505Z,64.00
2022-09-03T12:34:27.430Z,64.00
2022-09-03T12:36:56.375Z,65.50
2022-09-03T12:42:25.162Z,67.60
2022-09-03T12:44:53.533Z,68.30
2022-09-03T12:47:40.385Z,68.70
2022-09-03T12:50:11.564Z,69.10
2022-09-03T12:52:45.492Z,69.80
2022-09-03T12:55:30.427Z,70.50
2022-09-03T12:58:10.238Z,72.80
2022-09-03T13:00:47.182Z,73.20
2022-09-03T13:03:23.034Z,74.60
2022-09-03T13:05:57.189Z,76.50
2022-09-03T13:08:29.303Z,76.30
2022-09-03T13:11:01.106Z,80.00
2022-09-03T13:13:33.685Z,84.30
2022-09-03T13:16:49.642Z,85.60
2022-09-03T13:19:27.681Z,84.90
2022-09-03T13:22:08.069Z,89.40
2022-09-03T13:24:57.204Z,90.90
2022-09-03T13:27:34.291Z,92.20
2022-09-03T13:30:10.994Z,93.90
2022-09-03T13:32:51.075Z,95.20
2022-09-03T13:35:30.146Z,96.90
2022-09-03T13:38:07.286Z,97.40
2022-09-03T13:40:43.139Z,97.40
2022-09-03T13:43:27.241Z,97.40
2022-09-03T13:46:02.106Z,97.40
2022-09-03T13:48:53.789Z,97.40
2022-09-03T13:51:29.760Z,97.40
2022-09-03T13:54:11.512Z,97.40
2022-09-03T13:56:57.760Z,97.40
2022-09-03T13:59:35.945Z,97.40
2022-09-03T14:02:25.118Z,97.40
2022-09-03T14:05:06.751Z,97.40
2022-09-03T14:07:53.263Z,97.40
2022-09-03T14:10:31.418Z,97.40
2022-09-03T14:13:13.495Z,97.40
2022-09-03T14:15:49.366Z,97.40
2022-09-03T14:18:42.439Z,97.20
2022-09-03T14:21:17.664Z,97.00
2022-09-03T14:23:51.859Z,94.60
2022-09-03T14:26:38.131Z,93.80
2022-09-03T14:29:17.242Z,93.10
2022-09-03T14:32:06.575Z,91.90
2022-09-03T14:34:54.263Z,93.30
2022-09-03T14:37:44.511Z,93.10
2022-09-03T14:40:20.317Z,92.80
2022-09-03T14:43:07.331Z,92.80
2022-09-03T14:46:16.499Z,93.10
2022-09-03T14:49:01.205Z,93.30
2022-09-03T14:51:50.625Z,93.40
2022-09-03T14:54:40.501Z,94.30
2022-09-03T14:57:32.823Z,94.30
2022-09-03T15:00:12.040Z,95.10
2022-09-03T15:03:36.971Z,95.30
2022-09-03T15:06:31.062Z,95.60
2022-09-03T15:09:29.607Z,96.20
2022-09-03T15:12:02.458Z,97.40
2022-09-03T15:14:40.975Z,97.40
2022-09-03T15:17:31.997Z,97.40
2022-09-03T15:20:18.034Z,97.40
2022-09-03T15:23:13.201Z,97.40
2022-09-03T15:26:20.913Z,97.40
2022-09-03T15:29:12.867Z,97.40
2022-09-03T15:31:54.177Z,97.40
2022-09-03T15:34:50.408Z,97.40
2022-09-03T15:37:24.675Z,97.40
2022-09-03T15:40:04.457Z,97.40
2022-09-03T15:42:34.105Z,97.40
2022-09-03T15:45:17.707Z,97.40
2022-09-03T15:47:56.376Z,97.40
2022-09-03T15:50:36.267Z,97.40
2022-09-03T15:53:16.363Z,97.40
2022-09-03T15:55:46.953Z,97.40
2022-09-03T15:58:28.464Z,97.40
2022-09-03T16:01:03.092Z,97.40
2022-09-03T16:03:46.854Z,97.40
2022-09-03T16:06:29.204Z,97.40
2022-09-03T16:09:02.116Z,97.40
2022-09-03T16:11:42.212Z,97.40
2022-09-03T16:14:17.343Z,97.40
2022-09-03T16:17:01.577Z,97.40
2022-09-03T16:19:39.296Z,97.40
2022-09-03T16:22:14.962Z,97.40
2022-09-03T16:24:50.861Z,97.40
2022-09-03T16:27:24.008Z,97.40
2022-09-03T16:30:01.355Z,97.40
2022-09-03T16:32:43.249Z,97.40
2022-09-03T16:35:29.847Z,97.40
2022-09-03T16:38:13.643Z,97.40
2022-09-03T16:40:49.661Z,97.40
2022-09-03T16:43:40.775Z,97.40
2022-09-03T16:46:24.182Z,97.40
2022-09-03T16:49:08.749Z,97.40
2022-09-03T16:51:45.877Z,97.40
2022-09-03T16:54:41.343Z,97.40
2022-09-03T16:57:24.283Z,97.40
2022-09-03T17:00:11.228Z,97.40
2022-09-03T17:03:26.495Z,97.40
2022-09-03T17:06:27.608Z,97.40
2022-09-03T17:09:10.881Z,97.40
2022-09-03T17:11:55.100Z,97.40
2022-09-03T17:15:13.604Z,97.40
2022-09-03T17:18:23.643Z,97.40
2022-09-03T17:21:07.247Z,97.40
2022-09-03T17:24:05.031Z,97.40
2022-09-03T17:26:41.957Z,97.40
2022-09-03T17:29:35.808Z,97.40
2022-09-03T17:32:21.365Z,97.40
2022-09-03T17:35:07.705Z,97.40
2022-09-03T17:37:56.581Z,97.40
2022-09-03T17:40:35.007Z,97.40
2022-09-03T17:43:16.803Z,97.40
2022-09-03T17:45:53.128Z,97.40
2022-09-03T17:48:51.275Z,97.40
2022-09-03T17:51:35.751Z,97.40
2022-09-03T17:54:11.828Z,97.40
2022-09-03T17:56:59.780Z,97.40
2022-09-03T17:59:39.186Z,97.40
2022-09-03T18:02:23.741Z,97.40
2022-09-03T18:04:58.060Z,97.40
2022-09-03T18:07:34.081Z,97.40
2022-09-03T18:10:17.435Z,97.40
2022-09-03T18:12:59.810Z,97.40
2022-09-03T18:15:38.474Z,97.40
2022-09-03T18:18:18.230Z,97.40
2022-09-03T18:21:23.306Z,97.40
2022-09-03T18:24:21.487Z,97.40
2022-09-03T18:27:15.525Z,97.40
2022-09-03T18:30:06.043Z,97.40
2022-09-03T18:32:52.436Z,97.40
2022-09-03T18:35:38.429Z,97.40
2022-09-03T18:38:24.120Z,97.40
2022-09-03T18:41:23.058Z,97.40
2022-09-03T18:44:23.823Z,97.40
2022-09-03T18:50:39.020Z,97.40
2022-09-03T18:53:31.846Z,97.40
2022-09-03T18:56:33.817Z,97.40
2022-09-03T18:59:37.313Z,97.40
2022-09-03T19:02:36.829Z,97.40
2022-09-03T19:05:35.955Z,97.40
2022-09-03T19:08:33.124Z,97.40
2022-09-03T19:11:27.901Z,97.40
2022-09-03T19:14:19.502Z,97.40
2022-09-03T19:17:19.739Z,97.40
2022-09-03T19:20:23.600Z,97.40
2022-09-03T19:23:09.460Z,97.40
2022-09-03T19:25:55.474Z,97.40
2022-09-03T19:28:44.852Z,97.40
2022-09-03T19:31:58.491Z,97.40
2022-09-03T19:35:17.607Z,97.40
2022-09-03T19:38:22.234Z,97.40
2022-09-03T19:41:21.619Z,97.40
2022-09-03T19:44:27.704Z,97.40
2022-09-03T19:47:17.415Z,97.40
2022-09-03T19:50:19.828Z,97.40
2022-09-03T19:53:13.143Z,97.40
2022-09-03T19:56:07.420Z,97.40
2022-09-03T19:58:57.363Z,97.40
2022-09-03T20:01:52.879Z,97.40
2022-09-03T20:04:46.315Z,97.40
2022-09-03T20:07:32.151Z,97.40
2022-09-03T20:10:22.905Z,97.40
2022-09-03T20:13:00.266Z,97.40
2022-09-03T20:15:47.199Z,97.40
2022-09-03T20:18:27.936Z,97.40
2022-09-03T20:21:03.992Z,97.40
2022-09-03T20:23:41.331Z,97.40
2022-09-03T20:26:22.394Z,97.40
2022-09-03T20:29:22.137Z,97.40
2022-09-03T20:32:00.596Z,97.40
2022-09-03T20:34:45.767Z,97.40
2022-09-03T20:37:29.758Z,97.40
2022-09-03T20:40:13.473Z,97.40
2022-09-03T20:43:06.349Z,97.40
2022-09-03T20:45:50.839Z,97.40
2022-09-03T20:48:23.909Z,97.40
2022-09-03T20:51:04.396Z,97.40
2022-09-03T20:54:04.419Z,97.40
2022-09-03T20:56:51.321Z,97.40
2022-09-03T20:59:30.710Z,97.40
2022-09-03T21:02:06.790Z,97.40
2022-09-03T21:04:51.527Z,97.40
2022-09-03T21:07:35.641Z,97.40
2022-09-03T21:10:15.058Z,97.40
2022-09-03T21:12:52.039Z,97.40
2022-09-03T21:15:29.040Z,97.40
2022-09-03T21:18:07.774Z,97.40
2022-09-03T21:20:46.709Z,97.40
2022-09-03T21:23:23.232Z,97.40
2022-09-03T21:25:58.507Z,97.40
2022-09-03T21:28:33.922Z,97.40
2022-09-03T21:31:11.763Z,97.40
2022-09-03T21:33:41.039Z,97.40
2022-09-03T21:36:17.575Z,97.40
2022-09-03T21:38:56.980Z,97.40
2022-09-03T21:41:31.315Z,97.40
2022-09-03T21:44:06.274Z,97.40
2022-09-03T21:46:40.536Z,97.40
2022-09-03T21:49:11.526Z,97.40
2022-09-03T21:51:48.405Z,97.40
2022-09-03T21:54:24.875Z,97.40
2022-09-03T21:57:12.229Z,97.40
2022-09-03T22:00:17.604Z,97.40
2022-09-03T22:02:47.173Z,97.40
2022-09-03T22:05:17.486Z,97.40
2022-09-03T22:08:04.491Z,97.40
2022-09-03T22:10:45.446Z,97.40
2022-09-03T22:13:24.192Z,97.40
2022-09-03T22:16:01.761Z,97.40
2022-09-03T22:18:35.790Z,97.40
2022-09-03T22:21:14.308Z,97.40
2022-09-03T22:24:07.209Z,97.40
2022-09-03T22:26:51.320Z,97.40
2022-09-03T22:29:32.972Z,97.40
2022-09-03T22:32:12.372Z,97.40
2022-09-03T22:35:10.525Z,97.40
2022-09-03T22:37:56.490Z,97.40
2022-09-03T22:40:30.253Z,97.40
2022-09-03T22:43:27.834Z,97.40
2022-09-03T22:46:07.498Z,97.40
2022-09-03T22:49:12.185Z,97.40
2022-09-03T22:52:00.409Z,97.40
2022-09-03T22:54:46.574Z,97.40
2022-09-03T22:57:17.137Z,97.40
2022-09-03T22:59:56.640Z,97.40
2022-09-03T23:02:29.340Z,97.40
2022-09-03T23:05:07.170Z,97.40
2022-09-03T23:07:49.604Z,97.40
2022-09-03T23:10:25.856Z,97.40
2022-09-03T23:13:06.522Z,97.40
2022-09-03T23:15:41.549Z,97.40
2022-09-03T23:18:15.341Z,97.40
2022-09-03T23:20:50.476Z,97.40
2022-09-03T23:23:23.850Z,97.40
2022-09-03T23:25:59.717Z,97.40
2022-09-03T23:28:36.615Z,97.40
2022-09-03T23:31:19.902Z,97.40
2022-09-03T23:33:52.179Z,97.40
2022-09-03T23:37:05.807Z,97.40
2022-09-03T23:39:55.734Z,97.40
2022-09-03T23:42:41.902Z,97.40
2022-09-03T23:45:23.118Z,97.40
2022-09-03T23:48:05.924Z,97.40
2022-09-03T23:50:44.754Z,97.40
2022-09-03T23:53:37.901Z,97.40
2022-09-03T23:56:46.548Z,97.40
2022-09-03T23:59:24.703Z,97.40
